createdAt,value
2017-06-19T00:01:57.118Z,67.50
2017-06-19T00:04:24.594Z,67.20
2017-06-19T00:06:52.104Z,67.00
2017-06-19T00:09:20.350Z,67.50
2017-06-19T00:11:47.823Z,67.50
2017-06-19T00:14:16.081Z,67.60
2017-06-19T00:16:44.335Z,67.70
2017-06-19T00:19:11.826Z,67.70
2017-06-19T00:21:40.079Z,67.70
2017-06-19T00:24:07.580Z,67.70
2017-06-19T00:26:35.053Z,67.80
2017-06-19T00:29:02.546Z,68.00
2017-06-19T00:31:30.799Z,69.80
2017-06-19T00:33:58.314Z,68.90
2017-06-19T00:36:25.790Z,69.20
2017-06-19T00:38:53.266Z,69.20
2017-06-19T00:41:20.759Z,69.90
2017-06-19T00:43:49.065Z,69.80
2017-06-19T00:46:16.558Z,69.60
2017-06-19T00:48:44.038Z,70.10
2017-06-19T00:51:12.303Z,69.80
2017-06-19T00:53:39.794Z,69.70
2017-06-19T00:56:07.283Z,69.60
2017-06-19T00:58:34.761Z,69.70
2017-06-19T01:01:02.254Z,70.00
2017-06-19T01:03:29.740Z,70.00
2017-06-19T01:05:57.231Z,70.30
2017-06-19T01:08:25.474Z,70.70
2017-06-19T01:10:52.970Z,70.70
2017-06-19T01:13:20.471Z,70.50
2017-06-19T01:15:47.951Z,70.50
2017-06-19T01:18:15.443Z,70.30
2017-06-19T01:20:42.914Z,70.70
2017-06-19T01:23:10.417Z,71.00
2017-06-19T01:25:37.901Z,71.00
2017-06-19T01:28:05.414Z,71.20
2017-06-19T01:30:32.892Z,71.50
2017-06-19T01:33:00.392Z,71.40
2017-06-19T01:35:27.877Z,71.00
2017-06-19T01:37:55.384Z,70.70
2017-06-19T01:40:22.869Z,71.10
2017-06-19T01:42:50.347Z,72.20
2017-06-19T01:45:17.859Z,72.80
2017-06-19T01:47:45.359Z,72.60
2017-06-19T01:50:12.851Z,72.20
2017-06-19T01:52:40.328Z,72.00
2017-06-19T01:55:07.829Z,71.90
2017-06-19T01:57:35.314Z,71.50
2017-06-19T02:00:02.809Z,71.50
2017-06-19T02:02:30.293Z,71.50
2017-06-19T02:04:57.790Z,71.50
2017-06-19T02:07:25.294Z,71.30
2017-06-19T02:09:52.794Z,71.30
2017-06-19T02:12:20.271Z,71.50
2017-06-19T02:14:47.786Z,71.50
2017-06-19T02:17:16.031Z,72.30
2017-06-19T02:19:43.518Z,71.60
2017-06-19T02:22:11.014Z,71.70
2017-06-19T02:24:38.487Z,72.60
2017-06-19T02:27:05.990Z,72.20
2017-06-19T02:29:33.473Z,71.60
2017-06-19T02:32:00.972Z,71.70
2017-06-19T02:34:28.454Z,71.80
2017-06-19T02:36:55.962Z,71.50
2017-06-19T02:39:23.435Z,71.80
2017-06-19T02:41:50.935Z,71.70
2017-06-19T02:44:18.411Z,71.50
2017-06-19T02:46:45.931Z,71.80
2017-06-19T02:49:14.186Z,72.30
2017-06-19T02:51:42.425Z,72.60
2017-06-19T02:54:09.915Z,72.50
2017-06-19T02:56:38.169Z,73.10
2017-06-19T02:59:05.667Z,73.10
2017-06-19T03:01:33.147Z,73.00
2017-06-19T03:04:00.658Z,73.60
2017-06-19T03:06:28.135Z,73.60
2017-06-19T03:08:55.635Z,73.80
2017-06-19T03:11:23.111Z,73.90
2017-06-19T03:13:50.599Z,74.00
2017-06-19T03:16:18.076Z,74.00
2017-06-19T03:18:45.575Z,74.20
2017-06-19T03:21:13.050Z,74.00
2017-06-19T03:23:41.324Z,74.30
2017-06-19T03:26:09.595Z,74.20
2017-06-19T03:28:37.857Z,74.20
2017-06-19T03:31:05.334Z,74.20
2017-06-19T03:33:32.811Z,74.50
2017-06-19T03:36:00.304Z,74.20
2017-06-19T03:38:27.778Z,74.10
2017-06-19T03:40:56.041Z,74.30
2017-06-19T03:43:23.521Z,74.30
2017-06-19T03:45:51.020Z,74.80
2017-06-19T03:48:18.495Z,74.90
2017-06-19T03:50:45.994Z,75.20
2017-06-19T03:53:13.470Z,75.30
2017-06-19T03:55:40.982Z,75.20
2017-06-19T03:58:09.222Z,74.40
2017-06-19T04:00:36.722Z,74.30
2017-06-19T04:03:04.215Z,73.80
2017-06-19T04:05:31.697Z,73.70
2017-06-19T04:07:59.209Z,73.10
2017-06-19T04:10:27.716Z,73.00
2017-06-19T04:12:55.254Z,73.30
2017-06-19T04:15:22.747Z,73.10
2017-06-19T04:17:50.243Z,72.60
2017-06-19T04:20:17.719Z,72.50
2017-06-19T04:22:45.220Z,72.10
2017-06-19T04:25:12.707Z,71.70
2017-06-19T04:27:40.211Z,71.60
2017-06-19T04:30:07.686Z,71.30
2017-06-19T04:32:35.940Z,71.30
2017-06-19T04:35:03.440Z,70.30
2017-06-19T04:37:30.923Z,70.10
2017-06-19T04:39:58.418Z,70.90
2017-06-19T04:42:26.671Z,70.90
2017-06-19T04:44:54.180Z,70.80
2017-06-19T04:47:21.671Z,69.30
2017-06-19T04:49:49.158Z,69.10
2017-06-19T04:52:16.630Z,69.30
2017-06-19T04:54:44.126Z,68.30
2017-06-19T04:57:11.603Z,69.30
2017-06-19T04:59:39.119Z,67.80
2017-06-19T05:02:06.603Z,67.60
2017-06-19T05:04:34.075Z,67.50
2017-06-19T05:07:01.575Z,67.40
2017-06-19T05:09:29.056Z,67.50
2017-06-19T05:11:56.554Z,67.10
2017-06-19T05:14:24.804Z,67.80
2017-06-19T05:16:52.294Z,68.10
2017-06-19T05:19:20.540Z,66.40
2017-06-19T05:21:48.247Z,66.40
2017-06-19T05:24:15.725Z,66.30
2017-06-19T05:26:43.227Z,66.30
2017-06-19T05:29:10.698Z,66.10
2017-06-19T05:31:38.197Z,65.80
2017-06-19T05:34:05.678Z,66.10
2017-06-19T05:36:33.178Z,65.60
2017-06-19T05:39:00.654Z,64.90
2017-06-19T05:41:28.134Z,65.90
2017-06-19T05:43:55.628Z,64.80
2017-06-19T05:46:23.111Z,64.80
2017-06-19T05:48:50.615Z,64.10
2017-06-19T05:51:18.087Z,62.60
2017-06-19T05:53:45.587Z,63.50
2017-06-19T05:56:13.059Z,62.60
2017-06-19T05:58:40.547Z,62.50
2017-06-19T06:01:08.791Z,61.70
2017-06-19T06:03:36.275Z,61.60
2017-06-19T06:06:03.782Z,60.50
2017-06-19T06:08:31.263Z,60.40
2017-06-19T06:10:58.750Z,60.10
2017-06-19T06:13:26.294Z,60.00
2017-06-19T06:15:53.795Z,59.00
2017-06-19T06:18:21.258Z,56.50
2017-06-19T06:20:48.746Z,52.10
2017-06-19T06:23:16.987Z,46.40
2017-06-19T06:25:45.767Z,46.00
2017-06-19T06:28:13.234Z,43.90
2017-06-19T06:30:40.728Z,41.50
2017-06-19T06:33:08.203Z,38.60
2017-06-19T06:35:35.718Z,38.80
2017-06-19T06:38:03.200Z,36.70
2017-06-19T06:40:30.671Z,37.50
2017-06-19T06:42:58.164Z,37.20
2017-06-19T06:45:26.562Z,36.30
2017-06-19T06:47:54.816Z,34.40
2017-06-19T06:50:22.291Z,34.80
2017-06-19T06:52:50.546Z,35.80
2017-06-19T06:55:18.023Z,35.80
2017-06-19T06:57:46.274Z,36.20
2017-06-19T07:00:13.746Z,36.20
2017-06-19T07:02:42.002Z,34.30
2017-06-19T07:05:09.475Z,34.10
2017-06-19T07:07:37.738Z,34.20
2017-06-19T07:10:05.218Z,34.00
2017-06-19T07:12:32.748Z,34.00
2017-06-19T07:15:01.011Z,34.70
2017-06-19T07:17:28.491Z,34.70
2017-06-19T07:19:55.991Z,32.70
2017-06-19T07:22:23.470Z,33.60
2017-06-19T07:24:50.962Z,34.30
2017-06-19T07:27:18.438Z,33.30
2017-06-19T07:29:45.947Z,32.20
2017-06-19T07:32:13.424Z,31.10
2017-06-19T07:34:41.702Z,30.30
2017-06-19T07:37:09.179Z,30.30
2017-06-19T07:39:36.658Z,29.00
2017-06-19T07:42:04.146Z,30.00
2017-06-19T07:44:32.391Z,32.40
2017-06-19T07:46:59.883Z,32.00
2017-06-19T07:49:27.370Z,30.00
2017-06-19T07:51:54.858Z,28.90
2017-06-19T07:54:22.336Z,28.80
2017-06-19T07:56:49.846Z,28.10
2017-06-19T07:59:17.318Z,28.30
2017-06-19T08:01:44.811Z,28.00
2017-06-19T08:04:12.286Z,27.10
2017-06-19T08:06:39.833Z,26.00
2017-06-19T08:09:07.304Z,27.30
2017-06-19T08:11:34.791Z,27.30
2017-06-19T08:14:02.278Z,26.20
2017-06-19T08:16:29.747Z,27.10
2017-06-19T08:18:57.243Z,27.30
2017-06-19T08:21:30.315Z,27.90
2017-06-19T08:23:57.807Z,28.30
2017-06-19T08:26:25.278Z,29.00
2017-06-19T08:28:53.538Z,28.40
2017-06-19T08:31:21.011Z,28.20
2017-06-19T08:33:49.272Z,25.90
2017-06-19T08:36:16.747Z,25.90
2017-06-19T08:38:45.014Z,24.10
2017-06-19T08:41:13.262Z,25.70
2017-06-19T08:43:40.738Z,25.60
2017-06-19T08:46:08.997Z,25.70
2017-06-19T08:48:36.482Z,25.70
2017-06-19T08:51:03.971Z,26.20
2017-06-19T08:53:31.448Z,27.60
2017-06-19T08:55:58.943Z,27.70
2017-06-19T08:58:26.411Z,26.80
2017-06-19T09:00:53.902Z,26.40
2017-06-19T09:03:21.388Z,26.50
2017-06-19T09:05:49.642Z,26.30
2017-06-19T09:08:17.137Z,25.90
2017-06-19T09:10:44.628Z,24.30
2017-06-19T09:13:12.107Z,24.40
2017-06-19T09:15:39.619Z,24.70
2017-06-19T09:18:07.111Z,25.10
2017-06-19T09:20:34.591Z,26.00
2017-06-19T09:23:02.858Z,24.90
2017-06-19T09:25:30.335Z,24.90
2017-06-19T09:27:57.824Z,24.40
2017-06-19T09:30:25.305Z,23.50
2017-06-19T09:32:52.799Z,24.00
2017-06-19T09:35:20.279Z,25.30
2017-06-19T09:37:47.778Z,24.90
2017-06-19T09:40:16.031Z,24.70
2017-06-19T09:42:43.523Z,24.90
2017-06-19T09:45:10.995Z,24.90
2017-06-19T09:47:38.503Z,24.70
2017-06-19T09:50:05.976Z,25.10
2017-06-19T09:52:34.218Z,25.00
2017-06-19T09:55:01.951Z,25.00
2017-06-19T09:57:29.436Z,24.00
2017-06-19T09:59:56.932Z,23.70
2017-06-19T10:02:24.402Z,24.40
2017-06-19T10:04:51.886Z,24.20
2017-06-19T10:07:19.370Z,24.90
2017-06-19T10:09:46.878Z,25.20
2017-06-19T10:12:14.350Z,26.00
2017-06-19T10:14:41.818Z,25.40
2017-06-19T10:17:09.315Z,25.00
2017-06-19T10:19:36.782Z,25.10
2017-06-19T10:22:04.338Z,26.10
2017-06-19T10:24:31.818Z,25.20
2017-06-19T10:26:59.318Z,24.90
2017-06-19T10:29:27.569Z,24.80
2017-06-19T10:31:55.058Z,25.10
2017-06-19T10:34:22.540Z,24.80
2017-06-19T10:36:50.035Z,24.10
2017-06-19T10:39:17.511Z,24.70
2017-06-19T10:41:45.786Z,24.70
2017-06-19T10:44:14.031Z,24.40
2017-06-19T10:46:41.506Z,24.40
2017-06-19T10:49:08.998Z,24.30
2017-06-19T10:51:36.468Z,24.80
2017-06-19T10:54:03.966Z,24.60
2017-06-19T10:56:31.477Z,26.80
2017-06-19T10:58:58.971Z,26.90
2017-06-19T11:01:26.454Z,25.80
2017-06-19T11:03:53.942Z,24.60
2017-06-19T11:06:21.454Z,24.40
2017-06-19T11:08:49.715Z,26.60
2017-06-19T11:11:17.190Z,26.50
2017-06-19T11:13:45.462Z,26.20
2017-06-19T11:16:12.939Z,26.20
2017-06-19T11:18:40.406Z,26.30
2017-06-19T11:21:07.903Z,26.10
2017-06-19T11:23:35.372Z,25.50
2017-06-19T11:26:02.867Z,25.20
2017-06-19T11:28:30.342Z,24.60
2017-06-19T11:30:57.834Z,24.60
2017-06-19T11:33:26.083Z,25.90
2017-06-19T11:35:53.574Z,25.80
2017-06-19T11:38:21.052Z,25.90
2017-06-19T11:40:48.547Z,25.40
2017-06-19T11:43:16.032Z,24.60
2017-06-19T11:45:44.303Z,24.70
2017-06-19T11:48:11.785Z,24.70
2017-06-19T11:50:39.287Z,25.20
2017-06-19T11:53:06.779Z,26.00
2017-06-19T11:55:34.251Z,26.40
2017-06-19T11:58:01.740Z,26.10
2017-06-19T12:00:29.223Z,25.90
2017-06-19T12:02:57.486Z,25.60
2017-06-19T12:05:24.962Z,25.60
2017-06-19T12:07:52.450Z,26.20
2017-06-19T12:10:19.923Z,26.40
2017-06-19T12:12:47.419Z,26.10
2017-06-19T12:15:15.667Z,26.90
2017-06-19T12:17:43.180Z,26.90
2017-06-19T12:20:10.652Z,25.30
2017-06-19T12:22:38.135Z,26.30
2017-06-19T12:25:05.627Z,25.10
2017-06-19T12:27:33.111Z,25.00
2017-06-19T12:30:01.537Z,24.50
2017-06-19T12:32:29.779Z,25.50
2017-06-19T12:34:57.271Z,25.50
2017-06-19T12:37:25.511Z,25.30
2017-06-19T12:39:53.001Z,25.20
2017-06-19T12:42:20.491Z,25.50
2017-06-19T12:44:47.980Z,26.20
2017-06-19T12:47:15.463Z,25.90
2017-06-19T12:49:43.727Z,25.70
2017-06-19T12:52:11.966Z,25.40
2017-06-19T12:54:39.440Z,25.40
2017-06-19T12:57:06.945Z,26.50
2017-06-19T12:59:34.431Z,26.40
2017-06-19T13:02:01.923Z,27.20
2017-06-19T13:04:30.167Z,25.60
2017-06-19T13:06:57.664Z,25.60
2017-06-19T13:09:25.138Z,26.30
2017-06-19T13:11:52.628Z,26.50
2017-06-19T13:14:20.107Z,26.50
2017-06-19T13:16:48.364Z,26.60
2017-06-19T13:19:15.854Z,26.30
2017-06-19T13:21:43.347Z,26.70
2017-06-19T13:24:10.831Z,26.20
2017-06-19T13:26:38.339Z,26.60
2017-06-19T13:29:05.816Z,26.40
2017-06-19T13:31:33.290Z,26.70
2017-06-19T13:34:00.789Z,26.80
2017-06-19T13:36:28.267Z,26.60
2017-06-19T13:38:55.759Z,26.10
2017-06-19T13:41:23.232Z,25.90
2017-06-19T13:43:51.491Z,24.90
2017-06-19T13:46:19.746Z,26.10
2017-06-19T13:48:47.240Z,26.10
2017-06-19T13:51:15.478Z,27.10
2017-06-19T13:53:42.967Z,27.00
2017-06-19T13:56:10.447Z,27.10
2017-06-19T13:58:37.958Z,26.80
2017-06-19T14:01:06.214Z,26.20
2017-06-19T14:03:33.702Z,26.20
2017-06-19T14:06:01.214Z,25.90
2017-06-19T14:08:28.687Z,25.70
2017-06-19T14:10:56.176Z,25.30
2017-06-19T14:13:23.650Z,25.40
2017-06-19T14:15:51.145Z,25.50
2017-06-19T14:18:18.632Z,25.50
2017-06-19T14:20:46.120Z,25.10
2017-06-19T14:23:13.599Z,24.90
2017-06-19T14:25:41.087Z,25.40
2017-06-19T14:28:08.575Z,24.70
2017-06-19T14:30:36.069Z,24.10
2017-06-19T14:33:03.549Z,24.10
2017-06-19T14:35:31.799Z,25.60
2017-06-19T14:37:59.283Z,25.60
2017-06-19T14:40:26.763Z,26.00
2017-06-19T14:42:54.254Z,24.90
2017-06-19T14:45:21.738Z,24.20
2017-06-19T14:47:50.001Z,24.60
2017-06-19T14:50:17.475Z,24.60
2017-06-19T14:52:44.974Z,25.30
2017-06-19T14:55:12.451Z,25.70
2017-06-19T14:57:39.954Z,26.00
2017-06-19T15:00:07.436Z,26.20
2017-06-19T15:02:34.934Z,26.20
2017-06-19T15:05:03.181Z,26.50
2017-06-19T15:07:30.663Z,26.00
2017-06-19T15:09:58.933Z,26.40
2017-06-19T15:12:27.178Z,26.10
2017-06-19T15:14:54.670Z,26.10
2017-06-19T15:17:22.920Z,27.30
2017-06-19T15:19:50.410Z,27.20
2017-06-19T15:22:23.531Z,27.80
2017-06-19T15:24:51.026Z,28.40
2017-06-19T15:27:18.503Z,28.90
2017-06-19T15:29:46.004Z,28.80
2017-06-19T15:32:13.487Z,28.70
2017-06-19T15:34:40.981Z,29.10
2017-06-19T15:37:08.648Z,29.00
2017-06-19T15:39:36.370Z,28.40
2017-06-19T15:42:04.045Z,28.50
2017-06-19T15:44:31.746Z,28.60
2017-06-19T15:46:59.385Z,28.50
2017-06-19T15:49:27.033Z,28.60
2017-06-19T15:51:54.545Z,29.00
2017-06-19T15:54:22.034Z,28.40
2017-06-19T15:56:49.526Z,29.20
2017-06-19T15:59:17.001Z,29.40
2017-06-19T16:01:44.496Z,29.00
2017-06-19T16:04:11.978Z,29.10
2017-06-19T16:06:39.487Z,29.20
2017-06-19T16:09:07.731Z,28.80
2017-06-19T16:11:35.222Z,28.80
2017-06-19T16:14:03.462Z,28.80
2017-06-19T16:16:30.958Z,28.80
2017-06-19T16:18:58.454Z,28.80
2017-06-19T16:21:25.977Z,29.10
2017-06-19T16:23:53.459Z,28.70
2017-06-19T16:26:20.960Z,28.70
2017-06-19T16:28:49.203Z,30.00
2017-06-19T16:31:16.706Z,29.60
2017-06-19T16:33:44.182Z,30.00
2017-06-19T16:36:11.699Z,30.00
2017-06-19T16:38:39.947Z,30.00
2017-06-19T16:41:07.443Z,30.00
2017-06-19T16:43:34.990Z,30.60
2017-06-19T16:46:03.268Z,30.50
2017-06-19T16:48:31.506Z,31.20
2017-06-19T16:50:58.986Z,31.20
2017-06-19T16:53:26.483Z,30.80
2017-06-19T16:55:53.962Z,31.10
2017-06-19T16:58:21.462Z,31.00
2017-06-19T17:00:48.950Z,31.00
2017-06-19T17:03:16.449Z,31.20
2017-06-19T17:05:44.690Z,32.00
2017-06-19T17:08:12.178Z,31.80
2017-06-19T17:10:39.667Z,31.80
2017-06-19T17:13:07.193Z,31.90
2017-06-19T17:15:34.685Z,31.90
2017-06-19T17:18:02.187Z,32.20
2017-06-19T17:20:29.667Z,32.40
2017-06-19T17:22:57.910Z,32.60
2017-06-19T17:25:25.406Z,32.50
2017-06-19T17:27:52.890Z,32.20
2017-06-19T17:30:20.382Z,32.20
2017-06-19T17:32:47.864Z,32.30
2017-06-19T17:35:15.351Z,32.30
2017-06-19T17:37:42.830Z,32.50
2017-06-19T17:40:10.315Z,32.70
2017-06-19T17:42:37.794Z,33.00
2017-06-19T17:45:05.299Z,32.90
2017-06-19T17:47:33.560Z,32.70
2017-06-19T17:50:01.052Z,32.70
2017-06-19T17:52:29.293Z,33.30
2017-06-19T17:54:56.787Z,33.30
2017-06-19T17:57:24.263Z,33.60
2017-06-19T17:59:51.748Z,33.40
2017-06-19T18:02:19.252Z,33.40
2017-06-19T18:04:46.730Z,33.20
2017-06-19T18:07:14.235Z,34.10
2017-06-19T18:09:42.487Z,34.70
2017-06-19T18:12:09.974Z,34.20
2017-06-19T18:14:38.219Z,34.20
2017-06-19T18:17:05.710Z,34.20
2017-06-19T18:19:33.186Z,34.20
2017-06-19T18:22:00.707Z,34.00
2017-06-19T18:24:29.032Z,34.30
2017-06-19T18:26:56.509Z,34.30
2017-06-19T18:29:23.995Z,34.20
2017-06-19T18:31:52.255Z,34.90
2017-06-19T18:34:19.761Z,35.40
2017-06-19T18:36:47.243Z,34.60
2017-06-19T18:39:14.738Z,34.60
2017-06-19T18:41:42.258Z,34.70
2017-06-19T18:44:09.754Z,34.90
2017-06-19T18:46:37.233Z,34.70
2017-06-19T18:49:04.747Z,34.80
2017-06-19T18:51:33.008Z,35.20
2017-06-19T18:54:00.494Z,35.10
2017-06-19T18:56:27.975Z,35.30
2017-06-19T18:58:55.454Z,35.40
2017-06-19T19:01:22.981Z,35.50
2017-06-19T19:03:50.478Z,35.80
2017-06-19T19:06:17.975Z,35.80
2017-06-19T19:08:45.459Z,36.10
2017-06-19T19:11:12.958Z,36.10
2017-06-19T19:13:41.194Z,36.00
2017-06-19T19:16:08.694Z,36.00
2017-06-19T19:18:36.940Z,36.50
2017-06-19T19:21:04.435Z,36.40
2017-06-19T19:23:31.910Z,36.80
2017-06-19T19:25:59.418Z,36.80
2017-06-19T19:28:26.906Z,37.00
2017-06-19T19:30:54.403Z,37.50
2017-06-19T19:33:21.904Z,38.30
2017-06-19T19:35:49.386Z,38.70
2017-06-19T19:38:16.909Z,39.20
2017-06-19T19:40:44.387Z,39.70
2017-06-19T19:43:11.887Z,40.40
2017-06-19T19:45:39.363Z,40.60
2017-06-19T19:48:07.638Z,41.20
2017-06-19T19:50:35.881Z,41.50
2017-06-19T19:53:03.607Z,41.50
2017-06-19T19:55:31.097Z,41.20
2017-06-19T19:58:00.750Z,41.80
2017-06-19T20:00:28.230Z,42.30
2017-06-19T20:02:55.728Z,42.60
2017-06-19T20:05:23.975Z,43.70
2017-06-19T20:07:51.455Z,43.50
2017-06-19T20:10:18.966Z,43.70
2017-06-19T20:12:46.442Z,43.80
2017-06-19T20:15:14.556Z,44.40
2017-06-19T20:17:43.066Z,44.90
2017-06-19T20:20:10.571Z,45.30
2017-06-19T20:22:38.814Z,46.20
2017-06-19T20:25:06.307Z,46.10
2017-06-19T20:27:34.555Z,47.30
2017-06-19T20:30:02.054Z,47.30
2017-06-19T20:32:29.546Z,47.50
2017-06-19T20:34:57.044Z,47.80
2017-06-19T20:37:25.309Z,48.90
2017-06-19T20:39:52.778Z,48.90
2017-06-19T20:42:21.036Z,49.70
2017-06-19T20:44:49.278Z,50.20
2017-06-19T20:47:16.776Z,49.80
2017-06-19T20:49:45.014Z,50.50
2017-06-19T20:52:12.512Z,50.50
2017-06-19T20:54:39.997Z,50.90
2017-06-19T20:57:07.491Z,51.30
2017-06-19T20:59:34.970Z,51.40
2017-06-19T21:02:02.467Z,51.40
2017-06-19T21:04:29.950Z,51.90
2017-06-19T21:06:57.421Z,52.10
2017-06-19T21:09:25.675Z,52.90
2017-06-19T21:11:53.160Z,52.20
2017-06-19T21:14:20.666Z,52.20
2017-06-19T21:16:48.144Z,52.20
2017-06-19T21:19:15.636Z,52.70
2017-06-19T21:21:43.115Z,52.60
2017-06-19T21:24:10.602Z,52.60
2017-06-19T21:26:38.079Z,52.80
2017-06-19T21:29:06.347Z,53.10
2017-06-19T21:31:34.596Z,52.90
2017-06-19T21:34:02.087Z,52.90
2017-06-19T21:36:29.580Z,52.70
2017-06-19T21:38:57.074Z,52.90
2017-06-19T21:41:24.572Z,52.60
2017-06-19T21:43:52.044Z,52.70
2017-06-19T21:46:19.539Z,52.50
2017-06-19T21:48:47.788Z,53.00
2017-06-19T21:51:15.286Z,52.30
2017-06-19T21:53:43.532Z,52.40
2017-06-19T21:56:11.023Z,52.40
2017-06-19T21:58:38.506Z,52.50
2017-06-19T22:01:06.027Z,52.80
2017-06-19T22:03:33.511Z,53.10
2017-06-19T22:06:01.022Z,53.30
2017-06-19T22:08:29.276Z,53.50
2017-06-19T22:10:56.795Z,53.50
2017-06-19T22:13:24.284Z,53.70
2017-06-19T22:15:51.773Z,53.70
2017-06-19T22:18:19.275Z,53.80
2017-06-19T22:20:52.310Z,54.00
2017-06-19T22:23:19.824Z,54.30
2017-06-19T22:25:47.299Z,54.70
2017-06-19T22:28:14.792Z,54.90
2017-06-19T22:30:42.275Z,54.80
2017-06-19T22:33:09.773Z,55.60
2017-06-19T22:35:38.027Z,56.00
2017-06-19T22:38:05.519Z,55.40
2017-06-19T22:40:33.004Z,55.40
2017-06-19T22:43:00.497Z,55.40
2017-06-19T22:45:27.997Z,55.30
2017-06-19T22:47:55.475Z,55.40
2017-06-19T22:50:22.968Z,55.50
2017-06-19T22:52:51.202Z,56.70
2017-06-19T22:55:18.691Z,56.10
2017-06-19T22:57:46.934Z,55.80
2017-06-19T23:00:14.424Z,56.00
2017-06-19T23:02:42.674Z,56.20
2017-06-19T23:05:10.170Z,56.20
2017-06-19T23:07:37.650Z,56.40
2017-06-19T23:10:05.158Z,56.70
2017-06-19T23:12:34.136Z,57.10
2017-06-19T23:15:01.607Z,56.90
2017-06-19T23:17:29.867Z,57.30
2017-06-19T23:19:57.346Z,57.30
2017-06-19T23:22:24.835Z,57.20
2017-06-19T23:24:52.324Z,57.50
2017-06-19T23:27:19.807Z,57.60
2017-06-19T23:29:48.047Z,57.70
2017-06-19T23:32:15.543Z,57.70
2017-06-19T23:34:43.018Z,58.00
2017-06-19T23:37:10.491Z,58.20
2017-06-19T23:39:37.978Z,58.50
2017-06-19T23:42:06.224Z,59.80
2017-06-19T23:44:33.710Z,59.20
2017-06-19T23:47:01.956Z,59.50
2017-06-19T23:49:29.443Z,59.50
2017-06-19T23:51:56.932Z,59.70
2017-06-19T23:54:24.426Z,59.90
2017-06-19T23:56:51.908Z,61.00
2017-06-19T23:59:20.178Z,60.80
